createdAt,value
2022-12-19T00:00:32.131Z,23.50
2022-12-19T00:01:38.731Z,23.56
2022-12-19T00:02:45.237Z,27.33
2022-12-19T00:03:56.609Z,27.47
2022-12-19T00:05:00.556Z,27.50
2022-12-19T00:06:05.374Z,22.81
2022-12-19T00:07:09.296Z,32.53
2022-12-19T00:08:18.026Z,19.25
2022-12-19T00:09:22.224Z,21.93
2022-12-19T00:10:26.190Z,27.25
2022-12-19T00:11:30.864Z,26.25
2022-12-19T00:12:36.855Z,29.00
2022-12-19T00:13:42.123Z,21.75
2022-12-19T00:14:49.681Z,25.81
2022-12-19T00:16:01.102Z,19.37
2022-12-19T00:17:36.989Z,22.06
2022-12-19T00:18:12.357Z,21.81
2022-12-19T00:19:17.866Z,22.00
2022-12-19T00:20:21.867Z,24.37
2022-12-19T00:21:29.858Z,20.88
2022-12-19T00:22:33.843Z,25.00
2022-12-19T00:23:41.154Z,25.88
2022-12-19T00:24:45.099Z,24.13
2022-12-19T00:25:49.219Z,23.81
2022-12-19T00:26:55.997Z,23.50
2022-12-19T00:28:03.488Z,16.40
2022-12-19T00:29:13.853Z,26.69
2022-12-19T00:30:17.594Z,19.12
2022-12-19T00:31:26.327Z,22.06
2022-12-19T00:32:35.102Z,20.00
2022-12-19T00:33:37.507Z,20.87
2022-12-19T00:34:46.092Z,18.62
2022-12-19T00:35:51.633Z,20.88
2022-12-19T00:36:55.673Z,22.62
2022-12-19T00:37:59.583Z,21.06
2022-12-19T00:39:08.785Z,19.25
2022-12-19T00:40:13.319Z,23.94
2022-12-19T00:41:20.215Z,17.25
2022-12-19T00:42:28.043Z,16.31
2022-12-19T00:43:33.730Z,20.88
2022-12-19T00:44:37.662Z,19.81
2022-12-19T00:45:41.702Z,27.19
2022-12-19T00:46:52.781Z,21.40
2022-12-19T00:47:53.920Z,22.00
2022-12-19T00:48:58.807Z,19.12
2022-12-19T00:50:03.339Z,24.69
2022-12-19T00:51:10.567Z,18.94
2022-12-19T00:52:17.101Z,20.00
2022-12-19T00:53:20.215Z,17.81
2022-12-19T00:54:24.708Z,19.13
2022-12-19T00:55:28.788Z,17.81
2022-12-19T00:56:37.232Z,17.37
2022-12-19T00:57:40.146Z,21.19
2022-12-19T00:58:47.394Z,24.37
2022-12-19T00:59:50.295Z,18.06
2022-12-19T01:00:56.806Z,19.19
2022-12-19T01:02:00.903Z,19.25
2022-12-19T01:03:07.592Z,13.19
2022-12-19T01:04:28.139Z,24.25
2022-12-19T01:05:23.179Z,17.81
2022-12-19T01:06:27.924Z,21.44
2022-12-19T01:08:47.096Z,17.69
2022-12-19T01:09:51.043Z,14.87
2022-12-19T01:14:23.201Z,15.25
2022-12-19T01:15:28.808Z,20.19
2022-12-19T01:16:32.947Z,17.75
2022-12-19T01:17:44.004Z,18.31
2022-12-19T01:18:44.397Z,18.27
2022-12-19T01:19:49.937Z,14.81
2022-12-19T01:20:57.454Z,16.62
2022-12-19T01:22:01.452Z,18.69
2022-12-19T01:23:08.007Z,21.25
2022-12-19T01:24:12.150Z,19.69
2022-12-19T01:25:17.778Z,20.88
2022-12-19T01:26:26.871Z,22.19
2022-12-19T01:27:35.431Z,19.25
2022-12-19T01:28:38.211Z,21.80
2022-12-19T01:29:52.847Z,22.25
2022-12-19T01:30:50.269Z,19.80
2022-12-19T01:31:54.829Z,17.81
2022-12-19T01:32:59.923Z,19.06
2022-12-19T01:34:03.916Z,20.56
2022-12-19T01:35:19.787Z,23.25
2022-12-19T01:36:15.495Z,20.56
2022-12-19T01:38:08.861Z,13.06
2022-12-19T01:38:26.243Z,17.37
2022-12-19T01:39:30.943Z,16.19
2022-12-19T01:40:38.034Z,15.19
2022-12-19T01:41:41.990Z,17.94
2022-12-19T01:42:48.560Z,16.56
2022-12-19T01:44:06.990Z,13.38
2022-12-19T01:45:15.633Z,11.63
2022-12-19T01:46:25.531Z,15.38
2022-12-19T01:47:28.758Z,13.81
2022-12-19T01:48:42.488Z,13.62
2022-12-19T01:49:51.917Z,15.56
2022-12-19T01:51:09.342Z,14.13
2022-12-19T01:52:22.913Z,13.50
2022-12-19T01:53:22.596Z,15.44
2022-12-19T01:54:40.572Z,15.44
2022-12-19T01:55:43.536Z,10.88
2022-12-19T01:56:53.263Z,11.19
2022-12-19T01:58:00.708Z,12.44
2022-12-19T01:59:07.796Z,11.00
2022-12-19T02:00:12.801Z,12.13
2022-12-19T02:01:19.208Z,13.94
2022-12-19T02:02:28.935Z,13.00
2022-12-19T02:03:36.434Z,14.25
2022-12-19T02:04:43.257Z,13.62
2022-12-19T02:06:00.918Z,15.94
2022-12-19T02:24:11.524Z,12.44
2022-12-19T02:25:37.414Z,12.00
2022-12-19T02:27:20.557Z,10.25
2022-12-19T02:28:19.718Z,13.88
2022-12-19T02:47:32.530Z,24.37
2022-12-19T02:48:41.148Z,29.31
2022-12-19T03:55:10.070Z,21.69
2022-12-19T03:59:19.507Z,20.56
2022-12-19T04:00:26.931Z,24.00
2022-12-19T04:01:33.901Z,21.87
2022-12-19T04:02:42.507Z,17.87
2022-12-19T04:03:48.910Z,20.37
2022-12-19T04:05:00.400Z,20.19
2022-12-19T04:06:07.847Z,19.75
2022-12-19T04:07:14.917Z,22.81
2022-12-19T04:08:19.618Z,20.25
2022-12-19T04:09:24.669Z,22.25
2022-12-19T04:10:32.171Z,22.00
2022-12-19T04:11:39.249Z,18.69
2022-12-19T04:12:51.472Z,25.69
2022-12-19T04:14:00.270Z,18.62
2022-12-19T04:15:07.756Z,24.00
2022-12-19T04:16:17.743Z,22.87
2022-12-19T04:17:45.397Z,18.81
2022-12-19T04:18:59.345Z,22.44
2022-12-19T04:20:15.376Z,13.62
2022-12-19T04:21:22.337Z,19.37
2022-12-19T04:22:39.859Z,18.31
2022-12-19T04:24:55.002Z,16.31
2022-12-19T04:25:19.181Z,17.87
2022-12-19T04:26:26.756Z,17.12
2022-12-19T04:27:33.551Z,17.81
2022-12-19T04:28:47.893Z,19.31
2022-12-19T04:29:58.342Z,20.75
2022-12-19T04:31:06.274Z,19.62
2022-12-19T04:32:11.533Z,19.27
2022-12-19T04:33:16.840Z,20.00
2022-12-19T04:34:22.057Z,23.12
2022-12-19T04:35:26.331Z,26.00
2022-12-19T04:36:30.526Z,22.44
2022-12-19T04:37:37.444Z,21.62
2022-12-19T04:38:48.533Z,20.31
2022-12-19T04:39:57.752Z,23.00
2022-12-19T04:40:59.783Z,18.50
2022-12-19T04:42:05.159Z,19.75
2022-12-19T04:43:09.472Z,16.44
2022-12-19T04:44:15.036Z,13.19
2022-12-19T04:45:19.076Z,15.94
2022-12-19T04:46:24.408Z,20.37
2022-12-19T04:47:28.504Z,19.56
2022-12-19T04:48:36.352Z,17.56
2022-12-19T04:49:40.330Z,14.38
2022-12-19T04:50:45.731Z,20.75
2022-12-19T04:51:53.450Z,17.62
2022-12-19T04:52:57.958Z,19.12
2022-12-19T04:54:01.880Z,17.44
2022-12-19T04:55:06.357Z,20.50
2022-12-19T04:56:15.394Z,20.12
2022-12-19T04:57:19.434Z,16.19
2022-12-19T04:58:23.466Z,17.19
2022-12-19T04:59:27.707Z,15.69
2022-12-19T05:00:34.445Z,19.44
2022-12-19T05:01:44.946Z,19.75
2022-12-19T05:02:46.922Z,15.73
2022-12-19T05:03:57.614Z,18.75
2022-12-19T05:06:30.995Z,19.50
2022-12-19T05:07:36.485Z,17.75
2022-12-19T05:08:42.451Z,19.37
2022-12-19T05:09:46.511Z,20.06
2022-12-19T05:10:53.202Z,21.19
2022-12-19T05:11:57.107Z,22.19
2022-12-19T05:13:02.674Z,22.81
2022-12-19T05:14:06.666Z,19.33
2022-12-19T05:15:11.025Z,20.88
2022-12-19T05:16:16.462Z,25.25
2022-12-19T05:18:08.469Z,24.06
2022-12-19T05:18:57.393Z,20.94
2022-12-19T05:20:51.463Z,27.13
2022-12-19T05:21:59.282Z,28.47
2022-12-19T05:23:05.767Z,32.31
2022-12-19T05:56:12.649Z,26.31
2022-12-19T05:58:03.840Z,25.37
2022-12-19T05:59:07.903Z,28.19
2022-12-19T06:00:12.905Z,28.47
2022-12-19T06:00:18.766Z,31.81
2022-12-19T06:01:26.500Z,26.87
2022-12-19T06:02:37.025Z,32.75
2022-12-19T06:03:45.487Z,30.69
2022-12-19T06:04:51.096Z,30.81
2022-12-19T06:05:59.094Z,41.47
2022-12-19T06:07:04.875Z,37.44
2022-12-19T06:08:23.678Z,47.94
2022-12-19T06:09:46.137Z,47.88
2022-12-19T07:28:28.429Z,53.20
2022-12-19T07:38:35.584Z,56.44
2022-12-19T07:56:35.053Z,54.94
2022-12-19T07:57:45.988Z,54.33
2022-12-19T08:15:54.668Z,50.75
2022-12-19T08:22:25.914Z,37.00
2022-12-19T08:22:43.258Z,37.00
2022-12-19T08:23:49.272Z,40.38
2022-12-19T08:24:51.187Z,40.81
2022-12-19T08:26:04.991Z,37.19
2022-12-19T08:27:14.043Z,42.81
2022-12-19T08:28:31.277Z,41.44
2022-12-19T09:16:40.643Z,27.06
2022-12-19T09:17:47.248Z,27.60
2022-12-19T09:18:59.310Z,27.44
2022-12-19T09:20:04.101Z,15.63
2022-12-19T09:21:12.770Z,26.13
2022-12-19T09:22:17.496Z,23.81
2022-12-19T09:23:22.452Z,27.19
2022-12-19T09:24:28.073Z,24.87
2022-12-19T09:25:35.888Z,24.00
2022-12-19T09:26:49.260Z,24.19
2022-12-19T09:30:36.792Z,19.69
2022-12-19T09:31:40.935Z,19.94
2022-12-19T09:32:45.036Z,17.25
2022-12-19T09:33:50.472Z,25.06
2022-12-19T09:34:57.999Z,23.81
2022-12-19T09:36:09.735Z,21.50
2022-12-19T09:37:15.875Z,18.31
2022-12-19T09:38:20.794Z,18.75
2022-12-19T09:39:27.511Z,13.44
2022-12-19T09:41:28.103Z,22.00
2022-12-19T09:42:19.895Z,26.44
2022-12-19T09:43:41.530Z,26.25
2022-12-19T09:44:53.949Z,22.50
2022-12-19T09:46:17.680Z,21.75
2022-12-19T10:03:42.416Z,20.44
2022-12-19T10:07:11.196Z,25.75
2022-12-19T10:07:59.643Z,25.00
2022-12-19T10:09:00.718Z,25.94
2022-12-19T10:12:21.581Z,23.06
2022-12-19T10:12:42.397Z,24.50
2022-12-19T10:12:45.128Z,26.56
2022-12-19T10:13:40.160Z,31.87
2022-12-19T10:15:01.335Z,26.37
2022-12-19T10:16:31.236Z,25.50
2022-12-19T10:18:21.205Z,26.75
2022-12-19T10:20:35.302Z,29.56
2022-12-19T10:20:48.191Z,30.12
2022-12-19T10:22:16.836Z,32.56
2022-12-19T10:22:58.249Z,34.25
2022-12-19T10:24:10.981Z,32.87
2022-12-19T10:25:25.326Z,31.33
2022-12-19T10:26:48.694Z,32.93
2022-12-19T10:28:10.529Z,26.37
2022-12-19T10:29:41.027Z,22.37
2022-12-19T10:30:37.512Z,24.50
2022-12-19T10:32:07.891Z,21.87
2022-12-19T10:33:20.616Z,22.44
2022-12-19T10:34:23.863Z,22.13
2022-12-19T10:35:35.121Z,24.81
2022-12-19T10:37:13.307Z,29.25
2022-12-19T10:38:02.081Z,26.25
2022-12-19T10:39:09.161Z,29.31
2022-12-19T10:40:28.459Z,26.62
2022-12-19T10:42:02.515Z,22.31
2022-12-19T10:43:32.134Z,30.75
2022-12-19T10:47:08.892Z,25.88
2022-12-19T11:02:54.883Z,23.38
2022-12-19T11:04:18.072Z,30.19
2022-12-19T11:05:29.512Z,31.31
2022-12-19T11:12:25.642Z,30.33
2022-12-19T11:24:45.038Z,26.62
2022-12-19T11:29:26.554Z,18.62
2022-12-19T11:29:27.068Z,19.37
2022-12-19T11:29:29.926Z,17.62
2022-12-19T11:29:30.352Z,20.69
2022-12-19T11:30:05.033Z,16.50
2022-12-19T11:30:38.167Z,19.62
2022-12-19T11:30:40.967Z,18.69
2022-12-19T11:30:43.747Z,24.07
2022-12-19T11:30:48.369Z,20.19
2022-12-19T11:32:39.673Z,18.44
2022-12-19T11:33:31.490Z,20.56
2022-12-19T11:34:37.333Z,24.75
2022-12-19T11:35:54.673Z,24.50
2022-12-19T11:37:04.376Z,27.50
2022-12-19T11:38:13.976Z,37.88
2022-12-19T11:39:45.681Z,35.50
2022-12-19T11:56:33.459Z,15.88
2022-12-19T11:57:35.864Z,20.37
2022-12-19T11:58:42.644Z,22.94
2022-12-19T11:59:47.260Z,23.81
2022-12-19T12:00:57.046Z,23.40
2022-12-19T12:02:22.877Z,23.80
2022-12-19T12:04:01.869Z,21.75
2022-12-19T12:05:24.795Z,25.81
2022-12-19T12:06:35.951Z,24.44
2022-12-19T12:09:01.955Z,25.25
2022-12-19T12:09:50.123Z,23.94
2022-12-19T12:15:41.348Z,30.44
2022-12-19T12:18:15.254Z,29.50
2022-12-19T12:19:27.933Z,20.75
2022-12-19T12:22:30.197Z,28.38
2022-12-19T12:24:58.835Z,27.56
2022-12-19T12:25:02.747Z,26.31
2022-12-19T12:31:10.203Z,33.69
2022-12-19T12:31:14.804Z,29.37
2022-12-19T12:31:18.960Z,26.25
2022-12-19T13:20:22.347Z,58.33
2022-12-19T13:21:36.380Z,56.81
2022-12-19T13:22:47.093Z,60.94
2022-12-19T13:23:58.287Z,62.13
2022-12-19T13:25:16.376Z,56.73
2022-12-19T13:26:32.092Z,59.19
2022-12-19T13:27:44.407Z,60.44
2022-12-19T13:34:13.835Z,58.27
2022-12-19T13:39:50.679Z,61.37
2022-12-19T13:39:55.162Z,61.73
2022-12-19T13:40:07.493Z,57.47
2022-12-19T15:14:51.502Z,59.19
2022-12-19T15:15:52.787Z,57.60
2022-12-19T15:17:42.949Z,61.27
2022-12-19T15:18:46.958Z,65.50
2022-12-19T15:19:52.166Z,64.19
2022-12-19T15:21:03.473Z,57.87
2022-12-19T15:22:08.941Z,58.73
2022-12-19T15:23:23.303Z,61.33
2022-12-19T15:24:34.517Z,61.19
2022-12-19T15:57:58.346Z,75.06
2022-12-19T15:59:07.156Z,75.31
2022-12-19T16:00:27.984Z,72.20
2022-12-19T16:01:30.602Z,75.60
2022-12-19T16:03:20.425Z,78.27
2022-12-19T16:03:44.014Z,76.53
2022-12-19T16:04:50.646Z,75.07
2022-12-19T16:05:59.298Z,72.67
2022-12-19T16:07:06.548Z,77.93
2022-12-19T16:08:17.688Z,65.69
2022-12-19T16:26:46.931Z,77.20
2022-12-19T16:42:09.660Z,76.47
2022-12-19T16:45:47.678Z,72.27
2022-12-19T16:46:52.392Z,75.33
2022-12-19T16:47:56.474Z,75.07
2022-12-19T16:49:02.848Z,68.60
2022-12-19T16:50:17.170Z,72.80
2022-12-19T16:52:34.928Z,74.00
2022-12-19T17:13:17.243Z,71.93
2022-12-19T17:52:27.724Z,68.06
2022-12-19T17:53:44.551Z,72.13
2022-12-19T17:54:02.763Z,75.20
2022-12-19T17:55:16.656Z,75.40
2022-12-19T17:56:23.276Z,60.88
2022-12-19T17:57:27.231Z,66.00
2022-12-19T17:58:31.192Z,83.33
2022-12-19T17:59:35.163Z,70.33
2022-12-19T18:20:37.804Z,57.07
2022-12-19T18:21:41.216Z,64.12
2022-12-19T18:22:49.634Z,55.87
2022-12-19T18:23:53.621Z,56.13
2022-12-19T18:25:01.346Z,54.60
2022-12-19T18:26:13.881Z,54.44
2022-12-19T18:27:23.042Z,52.60
2022-12-19T18:28:45.062Z,54.40
2022-12-19T18:30:38.710Z,58.69
2022-12-19T18:31:26.859Z,55.56
2022-12-19T18:32:25.637Z,58.27
2022-12-19T18:35:50.722Z,54.20
2022-12-19T18:50:55.737Z,55.06
2022-12-19T18:52:02.865Z,54.87
2022-12-19T18:53:12.138Z,54.87
2022-12-19T18:54:21.655Z,55.63
2022-12-19T18:55:47.265Z,54.60
2022-12-19T18:56:52.809Z,56.63
2022-12-19T19:02:21.339Z,53.53
2022-12-19T19:02:43.862Z,60.75
2022-12-19T19:03:11.046Z,53.60
2022-12-19T19:39:01.766Z,48.38
2022-12-19T19:40:11.436Z,47.81
2022-12-19T19:41:15.287Z,48.20
2022-12-19T20:06:35.422Z,44.25
2022-12-19T21:29:38.864Z,51.07
2022-12-19T21:30:43.296Z,51.73
2022-12-19T21:31:53.865Z,54.44
2022-12-19T21:33:00.954Z,50.25
2022-12-19T21:34:10.286Z,50.81
2022-12-19T21:37:20.544Z,47.80
2022-12-19T21:39:02.083Z,38.00
2022-12-19T21:40:31.246Z,48.13
2022-12-19T21:41:01.000Z,51.20
2022-12-19T21:41:42.318Z,51.87
2022-12-19T21:42:44.318Z,55.67
2022-12-19T21:45:24.422Z,51.56
2022-12-19T21:46:28.075Z,54.88
2022-12-19T21:47:33.684Z,53.87
2022-12-19T21:48:40.040Z,51.47
2022-12-19T21:49:45.654Z,50.33
2022-12-19T21:50:52.685Z,61.25
2022-12-19T21:51:57.658Z,53.07
2022-12-19T21:53:04.314Z,56.47
2022-12-19T21:55:35.788Z,53.60
2022-12-19T21:56:45.749Z,57.47
2022-12-19T21:57:53.771Z,57.47
2022-12-19T21:59:00.743Z,54.19
2022-12-19T22:00:15.165Z,58.07
2022-12-19T22:01:18.130Z,56.33
2022-12-19T22:02:24.266Z,60.38
2022-12-19T22:03:29.242Z,55.20
2022-12-19T22:04:35.221Z,60.31
2022-12-19T22:05:41.268Z,57.73
2022-12-19T22:06:48.404Z,60.06
2022-12-19T22:08:02.906Z,63.20
2022-12-19T23:28:11.385Z,42.75
2022-12-19T23:29:16.417Z,46.67
2022-12-19T23:30:21.696Z,45.67
2022-12-19T23:31:28.001Z,44.00
2022-12-19T23:32:32.734Z,49.56
2022-12-19T23:33:38.981Z,49.40
2022-12-19T23:34:43.095Z,50.88
2022-12-19T23:35:47.125Z,49.00
2022-12-19T23:38:01.508Z,47.88
2022-12-19T23:39:08.670Z,51.13
2022-12-19T23:40:14.841Z,39.38
2022-12-19T23:44:10.787Z,46.56
2022-12-19T23:45:18.291Z,47.20
2022-12-19T23:46:25.490Z,45.81
2022-12-19T23:47:29.511Z,49.44
2022-12-19T23:48:33.543Z,46.33
2022-12-19T23:49:37.607Z,44.67
2022-12-19T23:50:50.651Z,45.93
2022-12-19T23:51:56.900Z,45.38
2022-12-19T23:53:00.890Z,42.06
